sensor_id;sensor_type;location;lat;lon;timestamp;temperature;humidity
32296;DHT22;18781;51.550;5.418;2023-01-24T00:01:53;6.70;65.60
32296;DHT22;18781;51.550;5.418;2023-01-24T00:04:18;6.70;65.50
32296;DHT22;18781;51.550;5.418;2023-01-24T00:06:44;6.70;65.70
32296;DHT22;18781;51.550;5.418;2023-01-24T00:09:09;6.70;65.60
32296;DHT22;18781;51.550;5.418;2023-01-24T00:11:35;6.70;65.40
32296;DHT22;18781;51.550;5.418;2023-01-24T00:14:01;6.70;65.40
32296;DHT22;18781;51.550;5.418;2023-01-24T00:16:26;6.70;65.20
32296;DHT22;18781;51.550;5.418;2023-01-24T00:18:52;6.70;65.40
32296;DHT22;18781;51.550;5.418;2023-01-24T00:21:18;6.70;64.90
32296;DHT22;18781;51.550;5.418;2023-01-24T00:23:45;6.70;64.80
32296;DHT22;18781;51.550;5.418;2023-01-24T00:26:11;6.70;65.20
32296;DHT22;18781;51.550;5.418;2023-01-24T00:28:37;6.70;65.20
32296;DHT22;18781;51.550;5.418;2023-01-24T00:31:03;6.70;65.30
32296;DHT22;18781;51.550;5.418;2023-01-24T00:33:29;6.70;65.20
32296;DHT22;18781;51.550;5.418;2023-01-24T00:35:54;6.70;65.40
32296;DHT22;18781;51.550;5.418;2023-01-24T00:38:20;6.70;65.30
32296;DHT22;18781;51.550;5.418;2023-01-24T00:40:46;6.70;65.20
32296;DHT22;18781;51.550;5.418;2023-01-24T00:43:11;6.70;65.40
32296;DHT22;18781;51.550;5.418;2023-01-24T00:45:37;6.70;65.20
32296;DHT22;18781;51.550;5.418;2023-01-24T00:48:03;6.70;65.40
32296;DHT22;18781;51.550;5.418;2023-01-24T00:50:29;6.70;65.40
32296;DHT22;18781;51.550;5.418;2023-01-24T00:52:55;6.70;65.50
32296;DHT22;18781;51.550;5.418;2023-01-24T00:55:20;6.60;65.30
32296;DHT22;18781;51.550;5.418;2023-01-24T00:57:46;6.70;65.50
32296;DHT22;18781;51.550;5.418;2023-01-24T01:00:12;6.60;65.30
32296;DHT22;18781;51.550;5.418;2023-01-24T01:02:38;6.70;65.30
32296;DHT22;18781;51.550;5.418;2023-01-24T01:05:03;6.70;65.00
32296;DHT22;18781;51.550;5.418;2023-01-24T01:07:29;6.70;64.80
32296;DHT22;18781;51.550;5.418;2023-01-24T01:09:55;6.70;64.60
32296;DHT22;18781;51.550;5.418;2023-01-24T01:12:20;6.70;64.50
32296;DHT22;18781;51.550;5.418;2023-01-24T01:14:46;6.70;64.50
32296;DHT22;18781;51.550;5.418;2023-01-24T01:17:11;6.70;64.70
32296;DHT22;18781;51.550;5.418;2023-01-24T01:19:37;6.60;64.60
32296;DHT22;18781;51.550;5.418;2023-01-24T01:22:02;6.60;64.80
32296;DHT22;18781;51.550;5.418;2023-01-24T01:24:28;6.60;65.00
32296;DHT22;18781;51.550;5.418;2023-01-24T01:26:53;6.60;64.90
32296;DHT22;18781;51.550;5.418;2023-01-24T01:29:19;6.60;65.10
32296;DHT22;18781;51.550;5.418;2023-01-24T01:31:44;6.50;65.10
32296;DHT22;18781;51.550;5.418;2023-01-24T01:34:10;6.50;65.00
32296;DHT22;18781;51.550;5.418;2023-01-24T01:36:36;6.50;65.10
32296;DHT22;18781;51.550;5.418;2023-01-24T01:39:01;6.50;65.20
32296;DHT22;18781;51.550;5.418;2023-01-24T01:41:27;6.50;65.10
32296;DHT22;18781;51.550;5.418;2023-01-24T01:43:52;6.50;65.20
32296;DHT22;18781;51.550;5.418;2023-01-24T01:46:44;6.60;65.00
32296;DHT22;18781;51.550;5.418;2023-01-24T01:49:21;6.60;64.80
32296;DHT22;18781;51.550;5.418;2023-01-24T01:51:50;6.60;64.40
32296;DHT22;18781;51.550;5.418;2023-01-24T01:54:22;6.60;64.60
32296;DHT22;18781;51.550;5.418;2023-01-24T01:57:01;6.60;64.80
32296;DHT22;18781;51.550;5.418;2023-01-24T01:59:30;6.60;64.90
32296;DHT22;18781;51.550;5.418;2023-01-24T02:01:57;6.60;65.00
32296;DHT22;18781;51.550;5.418;2023-01-24T02:04:31;6.60;65.10
32296;DHT22;18781;51.550;5.418;2023-01-24T02:07:00;6.50;65.70
32296;DHT22;18781;51.550;5.418;2023-01-24T02:09:31;6.50;65.80
32296;DHT22;18781;51.550;5.418;2023-01-24T02:12:01;6.60;65.20
32296;DHT22;18781;51.550;5.418;2023-01-24T02:14:28;6.60;65.20
32296;DHT22;18781;51.550;5.418;2023-01-24T02:17:15;6.60;65.00
32296;DHT22;18781;51.550;5.418;2023-01-24T02:22:25;6.60;65.20
32296;DHT22;18781;51.550;5.418;2023-01-24T02:24:59;6.60;65.00
32296;DHT22;18781;51.550;5.418;2023-01-24T02:27:26;6.60;64.90
32296;DHT22;18781;51.550;5.418;2023-01-24T02:29:53;6.60;64.90
32296;DHT22;18781;51.550;5.418;2023-01-24T02:32:19;6.60;65.00
32296;DHT22;18781;51.550;5.418;2023-01-24T02:34:45;6.60;65.10
32296;DHT22;18781;51.550;5.418;2023-01-24T02:37:12;6.60;65.30
32296;DHT22;18781;51.550;5.418;2023-01-24T02:39:50;6.60;65.30
32296;DHT22;18781;51.550;5.418;2023-01-24T02:42:20;6.60;65.30
32296;DHT22;18781;51.550;5.418;2023-01-24T02:44:52;6.60;65.40
32296;DHT22;18781;51.550;5.418;2023-01-24T02:47:23;6.60;65.40
32296;DHT22;18781;51.550;5.418;2023-01-24T02:49:50;6.60;65.20
32296;DHT22;18781;51.550;5.418;2023-01-24T02:52:16;6.60;65.00
32296;DHT22;18781;51.550;5.418;2023-01-24T02:55:00;6.60;65.10
32296;DHT22;18781;51.550;5.418;2023-01-24T02:57:25;6.60;65.10
32296;DHT22;18781;51.550;5.418;2023-01-24T03:00:10;6.60;65.20
32296;DHT22;18781;51.550;5.418;2023-01-24T03:02:36;6.60;65.20
32296;DHT22;18781;51.550;5.418;2023-01-24T03:05:02;6.60;65.20
32296;DHT22;18781;51.550;5.418;2023-01-24T03:07:27;6.60;65.00
32296;DHT22;18781;51.550;5.418;2023-01-24T03:10:07;6.60;65.10
32296;DHT22;18781;51.550;5.418;2023-01-24T03:12:32;6.60;65.10
32296;DHT22;18781;51.550;5.418;2023-01-24T03:15:17;6.50;65.20
32296;DHT22;18781;51.550;5.418;2023-01-24T03:18:01;6.50;65.10
32296;DHT22;18781;51.550;5.418;2023-01-24T03:20:46;6.50;65.20
32296;DHT22;18781;51.550;5.418;2023-01-24T03:23:30;6.50;65.40
32296;DHT22;18781;51.550;5.418;2023-01-24T03:26:14;6.50;65.40
32296;DHT22;18781;51.550;5.418;2023-01-24T03:28:58;6.50;65.50
32296;DHT22;18781;51.550;5.418;2023-01-24T03:31:43;6.50;65.50
32296;DHT22;18781;51.550;5.418;2023-01-24T03:34:27;6.50;65.50
32296;DHT22;18781;51.550;5.418;2023-01-24T03:36:59;6.50;65.20
32296;DHT22;18781;51.550;5.418;2023-01-24T03:39:25;6.50;64.90
32296;DHT22;18781;51.550;5.418;2023-01-24T03:42:09;6.50;64.80
32296;DHT22;18781;51.550;5.418;2023-01-24T03:44:34;6.50;64.80
32296;DHT22;18781;51.550;5.418;2023-01-24T03:47:00;6.50;64.90
32296;DHT22;18781;51.550;5.418;2023-01-24T03:49:25;6.40;64.80
32296;DHT22;18781;51.550;5.418;2023-01-24T03:52:09;6.40;64.80
32296;DHT22;18781;51.550;5.418;2023-01-24T03:54:57;6.40;65.00
32296;DHT22;18781;51.550;5.418;2023-01-24T03:57:23;6.40;65.10
32296;DHT22;18781;51.550;5.418;2023-01-24T03:59:49;6.40;65.20
32296;DHT22;18781;51.550;5.418;2023-01-24T04:02:15;6.40;65.40
32296;DHT22;18781;51.550;5.418;2023-01-24T04:04:40;6.30;65.40
32296;DHT22;18781;51.550;5.418;2023-01-24T04:07:24;6.30;65.50
32296;DHT22;18781;51.550;5.418;2023-01-24T04:09:50;6.30;65.50
32296;DHT22;18781;51.550;5.418;2023-01-24T04:12:16;6.30;65.50
32296;DHT22;18781;51.550;5.418;2023-01-24T04:14:42;6.30;65.50
32296;DHT22;18781;51.550;5.418;2023-01-24T04:17:08;6.30;65.50
32296;DHT22;18781;51.550;5.418;2023-01-24T04:19:34;6.40;65.50
32296;DHT22;18781;51.550;5.418;2023-01-24T04:21:59;6.30;65.50
32296;DHT22;18781;51.550;5.418;2023-01-24T04:24:25;6.30;66.00
32296;DHT22;18781;51.550;5.418;2023-01-24T04:26:50;6.30;65.40
32296;DHT22;18781;51.550;5.418;2023-01-24T04:29:16;6.30;65.40
32296;DHT22;18781;51.550;5.418;2023-01-24T04:31:41;6.30;65.50
32296;DHT22;18781;51.550;5.418;2023-01-24T04:34:07;6.30;65.50
32296;DHT22;18781;51.550;5.418;2023-01-24T04:36:32;6.30;65.60
32296;DHT22;18781;51.550;5.418;2023-01-24T04:38:58;6.30;65.60
32296;DHT22;18781;51.550;5.418;2023-01-24T04:41:24;6.30;65.60
32296;DHT22;18781;51.550;5.418;2023-01-24T04:43:49;6.30;65.70
32296;DHT22;18781;51.550;5.418;2023-01-24T04:46:15;6.30;65.70
32296;DHT22;18781;51.550;5.418;2023-01-24T04:48:40;6.30;65.60
32296;DHT22;18781;51.550;5.418;2023-01-24T04:51:08;6.30;65.50
32296;DHT22;18781;51.550;5.418;2023-01-24T04:53:37;6.30;65.50
32296;DHT22;18781;51.550;5.418;2023-01-24T04:56:03;6.30;65.50
32296;DHT22;18781;51.550;5.418;2023-01-24T04:58:28;6.20;65.60
32296;DHT22;18781;51.550;5.418;2023-01-24T05:00:54;6.20;65.60
32296;DHT22;18781;51.550;5.418;2023-01-24T05:03:19;6.20;65.60
32296;DHT22;18781;51.550;5.418;2023-01-24T05:05:48;6.20;65.50
32296;DHT22;18781;51.550;5.418;2023-01-24T05:08:14;6.20;65.50
32296;DHT22;18781;51.550;5.418;2023-01-24T05:10:39;6.20;65.40
32296;DHT22;18781;51.550;5.418;2023-01-24T05:13:05;6.20;65.30
32296;DHT22;18781;51.550;5.418;2023-01-24T05:15:31;6.20;65.40
32296;DHT22;18781;51.550;5.418;2023-01-24T05:17:56;6.20;65.40
32296;DHT22;18781;51.550;5.418;2023-01-24T05:20:21;6.20;65.50
32296;DHT22;18781;51.550;5.418;2023-01-24T05:22:47;6.20;65.50
32296;DHT22;18781;51.550;5.418;2023-01-24T05:25:14;6.10;65.60
32296;DHT22;18781;51.550;5.418;2023-01-24T05:27:40;6.10;66.20
32296;DHT22;18781;51.550;5.418;2023-01-24T05:30:06;6.10;65.70
32296;DHT22;18781;51.550;5.418;2023-01-24T05:32:32;6.10;65.80
32296;DHT22;18781;51.550;5.418;2023-01-24T05:34:57;6.10;65.90
32296;DHT22;18781;51.550;5.418;2023-01-24T05:37:23;6.20;65.90
32296;DHT22;18781;51.550;5.418;2023-01-24T05:39:48;6.20;65.80
32296;DHT22;18781;51.550;5.418;2023-01-24T05:42:14;6.20;65.60
32296;DHT22;18781;51.550;5.418;2023-01-24T05:44:39;6.20;66.10
32296;DHT22;18781;51.550;5.418;2023-01-24T05:47:05;6.10;65.50
32296;DHT22;18781;51.550;5.418;2023-01-24T05:49:31;6.10;65.60
32296;DHT22;18781;51.550;5.418;2023-01-24T05:51:56;6.10;65.60
32296;DHT22;18781;51.550;5.418;2023-01-24T05:54:22;6.10;65.60
32296;DHT22;18781;51.550;5.418;2023-01-24T05:56:47;6.10;65.70
32296;DHT22;18781;51.550;5.418;2023-01-24T05:59:13;6.10;65.70
32296;DHT22;18781;51.550;5.418;2023-01-24T06:01:39;6.00;65.90
32296;DHT22;18781;51.550;5.418;2023-01-24T06:04:05;6.00;65.80
32296;DHT22;18781;51.550;5.418;2023-01-24T06:06:30;6.10;66.40
32296;DHT22;18781;51.550;5.418;2023-01-24T06:08:56;6.00;65.80
32296;DHT22;18781;51.550;5.418;2023-01-24T06:11:22;6.00;65.80
32296;DHT22;18781;51.550;5.418;2023-01-24T06:13:48;6.00;65.70
32296;DHT22;18781;51.550;5.418;2023-01-24T06:16:15;6.00;65.70
32296;DHT22;18781;51.550;5.418;2023-01-24T06:18:41;6.00;65.70
32296;DHT22;18781;51.550;5.418;2023-01-24T06:21:07;6.00;65.70
32296;DHT22;18781;51.550;5.418;2023-01-24T06:23:33;6.00;65.70
32296;DHT22;18781;51.550;5.418;2023-01-24T06:25:59;6.00;65.80
32296;DHT22;18781;51.550;5.418;2023-01-24T06:28:25;6.00;65.90
32296;DHT22;18781;51.550;5.418;2023-01-24T06:30:52;6.00;65.90
32296;DHT22;18781;51.550;5.418;2023-01-24T06:38:26;6.00;66.00
32296;DHT22;18781;51.550;5.418;2023-01-24T06:40:54;5.90;66.00
32296;DHT22;18781;51.550;5.418;2023-01-24T06:43:20;6.00;66.10
32296;DHT22;18781;51.550;5.418;2023-01-24T06:45:46;5.90;66.10
32296;DHT22;18781;51.550;5.418;2023-01-24T06:48:12;5.90;66.10
32296;DHT22;18781;51.550;5.418;2023-01-24T06:50:37;5.90;66.10
32296;DHT22;18781;51.550;5.418;2023-01-24T06:53:03;5.90;66.30
32296;DHT22;18781;51.550;5.418;2023-01-24T06:55:29;5.90;66.20
32296;DHT22;18781;51.550;5.418;2023-01-24T06:57:55;5.90;66.20
32296;DHT22;18781;51.550;5.418;2023-01-24T07:00:21;5.90;66.20
32296;DHT22;18781;51.550;5.418;2023-01-24T07:02:47;6.00;66.10
32296;DHT22;18781;51.550;5.418;2023-01-24T07:05:15;5.90;66.00
32296;DHT22;18781;51.550;5.418;2023-01-24T07:07:41;5.90;66.00
32296;DHT22;18781;51.550;5.418;2023-01-24T07:10:06;5.90;66.00
32296;DHT22;18781;51.550;5.418;2023-01-24T07:12:32;5.90;66.10
32296;DHT22;18781;51.550;5.418;2023-01-24T07:14:57;5.90;66.10
32296;DHT22;18781;51.550;5.418;2023-01-24T07:17:23;5.90;66.20
32296;DHT22;18781;51.550;5.418;2023-01-24T07:19:49;5.90;66.30
32296;DHT22;18781;51.550;5.418;2023-01-24T07:22:14;5.80;66.30
32296;DHT22;18781;51.550;5.418;2023-01-24T07:24:40;5.80;66.30
32296;DHT22;18781;51.550;5.418;2023-01-24T07:27:08;5.90;66.40
32296;DHT22;18781;51.550;5.418;2023-01-24T07:29:33;5.90;66.40
32296;DHT22;18781;51.550;5.418;2023-01-24T07:31:59;5.80;66.40
32296;DHT22;18781;51.550;5.418;2023-01-24T07:34:24;5.90;66.50
32296;DHT22;18781;51.550;5.418;2023-01-24T07:36:50;5.90;66.50
32296;DHT22;18781;51.550;5.418;2023-01-24T07:39:15;5.80;66.40
32296;DHT22;18781;51.550;5.418;2023-01-24T07:41:41;5.80;66.40
32296;DHT22;18781;51.550;5.418;2023-01-24T07:44:10;5.80;66.40
32296;DHT22;18781;51.550;5.418;2023-01-24T07:46:36;5.80;66.50
32296;DHT22;18781;51.550;5.418;2023-01-24T07:49:02;5.80;66.50
32296;DHT22;18781;51.550;5.418;2023-01-24T07:51:28;5.80;66.50
32296;DHT22;18781;51.550;5.418;2023-01-24T07:53:53;5.80;66.50
32296;DHT22;18781;51.550;5.418;2023-01-24T07:56:19;5.80;66.60
32296;DHT22;18781;51.550;5.418;2023-01-24T07:58:44;5.80;66.60
32296;DHT22;18781;51.550;5.418;2023-01-24T08:01:15;5.80;66.60
32296;DHT22;18781;51.550;5.418;2023-01-24T08:03:40;5.80;66.70
32296;DHT22;18781;51.550;5.418;2023-01-24T08:06:06;5.80;66.60
32296;DHT22;18781;51.550;5.418;2023-01-24T08:08:32;5.90;66.70
32296;DHT22;18781;51.550;5.418;2023-01-24T08:10:57;5.80;66.60
32296;DHT22;18781;51.550;5.418;2023-01-24T08:13:23;5.80;66.60
32296;DHT22;18781;51.550;5.418;2023-01-24T08:15:48;5.80;66.60
32296;DHT22;18781;51.550;5.418;2023-01-24T08:18:14;5.80;66.50
32296;DHT22;18781;51.550;5.418;2023-01-24T08:20:39;5.80;66.50
32296;DHT22;18781;51.550;5.418;2023-01-24T08:23:05;5.80;66.50
32296;DHT22;18781;51.550;5.418;2023-01-24T08:25:30;5.80;66.50
32296;DHT22;18781;51.550;5.418;2023-01-24T08:27:57;5.80;66.50
32296;DHT22;18781;51.550;5.418;2023-01-24T08:30:22;5.80;66.60
32296;DHT22;18781;51.550;5.418;2023-01-24T08:32:48;5.80;66.50
32296;DHT22;18781;51.550;5.418;2023-01-24T08:35:14;5.80;66.60
32296;DHT22;18781;51.550;5.418;2023-01-24T08:37:39;5.80;66.60
32296;DHT22;18781;51.550;5.418;2023-01-24T08:40:05;5.80;66.60
32296;DHT22;18781;51.550;5.418;2023-01-24T08:42:31;5.80;66.70
32296;DHT22;18781;51.550;5.418;2023-01-24T08:44:57;5.80;66.60
32296;DHT22;18781;51.550;5.418;2023-01-24T08:47:22;5.80;66.60
32296;DHT22;18781;51.550;5.418;2023-01-24T08:49:48;5.80;66.50
32296;DHT22;18781;51.550;5.418;2023-01-24T08:52:13;5.80;66.50
32296;DHT22;18781;51.550;5.418;2023-01-24T08:54:39;5.80;66.50
32296;DHT22;18781;51.550;5.418;2023-01-24T08:57:05;5.80;66.40
32296;DHT22;18781;51.550;5.418;2023-01-24T08:59:32;5.80;66.20
32296;DHT22;18781;51.550;5.418;2023-01-24T09:01:57;5.80;66.00
32296;DHT22;18781;51.550;5.418;2023-01-24T09:04:22;5.80;66.00
32296;DHT22;18781;51.550;5.418;2023-01-24T09:06:50;5.80;66.10
32296;DHT22;18781;51.550;5.418;2023-01-24T09:09:16;5.80;66.20
32296;DHT22;18781;51.550;5.418;2023-01-24T09:11:41;5.70;66.10
32296;DHT22;18781;51.550;5.418;2023-01-24T09:14:07;5.70;66.10
32296;DHT22;18781;51.550;5.418;2023-01-24T09:16:32;5.70;66.10
32296;DHT22;18781;51.550;5.418;2023-01-24T09:18:58;5.70;66.20
32296;DHT22;18781;51.550;5.418;2023-01-24T09:21:24;5.70;66.30
32296;DHT22;18781;51.550;5.418;2023-01-24T09:23:49;5.70;66.30
32296;DHT22;18781;51.550;5.418;2023-01-24T09:26:15;5.70;66.30
32296;DHT22;18781;51.550;5.418;2023-01-24T09:28:40;5.70;66.40
32296;DHT22;18781;51.550;5.418;2023-01-24T09:31:09;5.70;66.40
32296;DHT22;18781;51.550;5.418;2023-01-24T09:33:34;5.60;66.40
32296;DHT22;18781;51.550;5.418;2023-01-24T09:36:01;5.60;66.40
32296;DHT22;18781;51.550;5.418;2023-01-24T09:38:28;5.60;67.10
32296;DHT22;18781;51.550;5.418;2023-01-24T09:41:06;5.60;66.50
32296;DHT22;18781;51.550;5.418;2023-01-24T09:46:02;5.70;66.70
32296;DHT22;18781;51.550;5.418;2023-01-24T09:48:34;5.70;66.70
32296;DHT22;18781;51.550;5.418;2023-01-24T09:51:01;5.70;66.80
32296;DHT22;18781;51.550;5.418;2023-01-24T09:53:29;5.70;66.80
32296;DHT22;18781;51.550;5.418;2023-01-24T09:55:57;5.70;66.80
32296;DHT22;18781;51.550;5.418;2023-01-24T10:00:54;5.80;66.70
32296;DHT22;18781;51.550;5.418;2023-01-24T10:03:22;5.80;66.70
32296;DHT22;18781;51.550;5.418;2023-01-24T10:05:50;5.70;66.60
32296;DHT22;18781;51.550;5.418;2023-01-24T10:11:06;5.80;66.70
32296;DHT22;18781;51.550;5.418;2023-01-24T10:18:46;5.80;66.80
32296;DHT22;18781;51.550;5.418;2023-01-24T10:23:43;5.90;66.70
32296;DHT22;18781;51.550;5.418;2023-01-24T10:26:18;5.90;66.70
32296;DHT22;18781;51.550;5.418;2023-01-24T10:28:54;5.90;66.70
32296;DHT22;18781;51.550;5.418;2023-01-24T10:31:25;5.90;66.80
32296;DHT22;18781;51.550;5.418;2023-01-24T10:33:53;5.90;66.80
32296;DHT22;18781;51.550;5.418;2023-01-24T10:38:51;6.00;66.80
32296;DHT22;18781;51.550;5.418;2023-01-24T10:41:18;6.00;66.70
32296;DHT22;18781;51.550;5.418;2023-01-24T10:43:44;6.00;66.70
32296;DHT22;18781;51.550;5.418;2023-01-24T10:48:55;6.00;66.70
32296;DHT22;18781;51.550;5.418;2023-01-24T10:51:22;6.00;66.80
32296;DHT22;18781;51.550;5.418;2023-01-24T10:53:48;6.00;66.80
32296;DHT22;18781;51.550;5.418;2023-01-24T10:56:16;6.00;66.80
32296;DHT22;18781;51.550;5.418;2023-01-24T10:58:43;6.00;66.60
32296;DHT22;18781;51.550;5.418;2023-01-24T11:01:19;6.00;66.50
32296;DHT22;18781;51.550;5.418;2023-01-24T11:03:45;6.00;66.50
32296;DHT22;18781;51.550;5.418;2023-01-24T11:06:36;6.00;66.40
32296;DHT22;18781;51.550;5.418;2023-01-24T11:09:18;6.00;66.40
32296;DHT22;18781;51.550;5.418;2023-01-24T11:11:53;6.00;66.30
32296;DHT22;18781;51.550;5.418;2023-01-24T11:14:23;6.00;66.20
32296;DHT22;18781;51.550;5.418;2023-01-24T11:16:50;6.00;66.10
32296;DHT22;18781;51.550;5.418;2023-01-24T11:19:35;6.10;66.10
32296;DHT22;18781;51.550;5.418;2023-01-24T11:22:03;6.00;66.10
32296;DHT22;18781;51.550;5.418;2023-01-24T11:24:28;6.00;66.20
32296;DHT22;18781;51.550;5.418;2023-01-24T11:26:56;6.00;66.20
32296;DHT22;18781;51.550;5.418;2023-01-24T11:29:22;6.00;65.90
32296;DHT22;18781;51.550;5.418;2023-01-24T11:31:50;6.00;65.60
32296;DHT22;18781;51.550;5.418;2023-01-24T11:34:39;6.00;65.80
32296;DHT22;18781;51.550;5.418;2023-01-24T11:44:44;6.00;65.60
32296;DHT22;18781;51.550;5.418;2023-01-24T11:52:07;5.90;65.90
32296;DHT22;18781;51.550;5.418;2023-01-24T11:57:14;6.00;65.60
32296;DHT22;18781;51.550;5.418;2023-01-24T11:59:52;6.00;65.80
32296;DHT22;18781;51.550;5.418;2023-01-24T12:13:04;6.00;66.10
32296;DHT22;18781;51.550;5.418;2023-01-24T12:15:33;6.00;66.00
32296;DHT22;18781;51.550;5.418;2023-01-24T12:23:28;6.10;66.00
32296;DHT22;18781;51.550;5.418;2023-01-24T12:26:01;6.00;65.90
32296;DHT22;18781;51.550;5.418;2023-01-24T12:28:35;6.10;66.00
32296;DHT22;18781;51.550;5.418;2023-01-24T12:31:04;6.10;65.50
32296;DHT22;18781;51.550;5.418;2023-01-24T12:36:00;6.10;65.40
32296;DHT22;18781;51.550;5.418;2023-01-24T12:38:49;6.00;65.50
32296;DHT22;18781;51.550;5.418;2023-01-24T12:41:18;6.10;65.70
32296;DHT22;18781;51.550;5.418;2023-01-24T12:46:16;6.00;65.90
32296;DHT22;18781;51.550;5.418;2023-01-24T12:51:22;6.10;66.60
32296;DHT22;18781;51.550;5.418;2023-01-24T12:56:19;6.10;66.10
32296;DHT22;18781;51.550;5.418;2023-01-24T12:58:47;6.10;66.10
32296;DHT22;18781;51.550;5.418;2023-01-24T13:01:23;6.20;66.10
32296;DHT22;18781;51.550;5.418;2023-01-24T13:06:20;6.20;66.00
32296;DHT22;18781;51.550;5.418;2023-01-24T13:11:25;6.20;66.00
32296;DHT22;18781;51.550;5.418;2023-01-24T13:14:05;6.20;66.00
32296;DHT22;18781;51.550;5.418;2023-01-24T13:16:44;6.20;65.90
32296;DHT22;18781;51.550;5.418;2023-01-24T13:21:55;6.20;66.00
32296;DHT22;18781;51.550;5.418;2023-01-24T13:29:36;6.30;65.90
32296;DHT22;18781;51.550;5.418;2023-01-24T13:32:08;6.30;65.90
32296;DHT22;18781;51.550;5.418;2023-01-24T13:34:40;6.20;65.90
32296;DHT22;18781;51.550;5.418;2023-01-24T13:37:06;6.30;65.90
32296;DHT22;18781;51.550;5.418;2023-01-24T13:39:39;6.30;65.80
32296;DHT22;18781;51.550;5.418;2023-01-24T13:44:37;6.30;65.80
32296;DHT22;18781;51.550;5.418;2023-01-24T13:50:18;6.30;65.80
32296;DHT22;18781;51.550;5.418;2023-01-24T13:55:01;6.20;65.70
32296;DHT22;18781;51.550;5.418;2023-01-24T13:57:28;6.20;65.60
32296;DHT22;18781;51.550;5.418;2023-01-24T14:07:53;6.20;65.40
32296;DHT22;18781;51.550;5.418;2023-01-24T14:10:18;6.10;65.30
32296;DHT22;18781;51.550;5.418;2023-01-24T14:12:52;6.10;65.40
32296;DHT22;18781;51.550;5.418;2023-01-24T14:17:47;6.10;65.30
32296;DHT22;18781;51.550;5.418;2023-01-24T14:20:37;6.00;65.40
32296;DHT22;18781;51.550;5.418;2023-01-24T14:23:09;6.00;65.50
32296;DHT22;18781;51.550;5.418;2023-01-24T14:28:04;6.00;65.60
32296;DHT22;18781;51.550;5.418;2023-01-24T14:30:38;6.00;65.60
32296;DHT22;18781;51.550;5.418;2023-01-24T14:33:16;6.00;65.60
32296;DHT22;18781;51.550;5.418;2023-01-24T14:38:20;6.00;65.30
32296;DHT22;18781;51.550;5.418;2023-01-24T14:40:48;6.00;65.20
32296;DHT22;18781;51.550;5.418;2023-01-24T14:43:14;6.00;65.40
32296;DHT22;18781;51.550;5.418;2023-01-24T14:45:40;6.00;65.40
32296;DHT22;18781;51.550;5.418;2023-01-24T14:48:12;6.00;65.30
32296;DHT22;18781;51.550;5.418;2023-01-24T14:50:38;6.00;65.30
32296;DHT22;18781;51.550;5.418;2023-01-24T14:53:24;6.00;65.20
32296;DHT22;18781;51.550;5.418;2023-01-24T14:55:51;6.00;65.30
32296;DHT22;18781;51.550;5.418;2023-01-24T14:58:21;6.00;65.10
32296;DHT22;18781;51.550;5.418;2023-01-24T15:00:48;6.00;64.90
32296;DHT22;18781;51.550;5.418;2023-01-24T15:03:20;5.90;64.90
32296;DHT22;18781;51.550;5.418;2023-01-24T15:06:05;5.90;65.10
32296;DHT22;18781;51.550;5.418;2023-01-24T15:08:31;5.90;65.30
32296;DHT22;18781;51.550;5.418;2023-01-24T15:13:29;5.90;65.50
32296;DHT22;18781;51.550;5.418;2023-01-24T15:15:55;5.90;65.50
32296;DHT22;18781;51.550;5.418;2023-01-24T15:18:38;5.90;65.40
32296;DHT22;18781;51.550;5.418;2023-01-24T15:21:05;5.90;65.50
32296;DHT22;18781;51.550;5.418;2023-01-24T15:23:31;5.90;65.50
32296;DHT22;18781;51.550;5.418;2023-01-24T15:25:57;5.90;65.50
32296;DHT22;18781;51.550;5.418;2023-01-24T15:28:26;5.90;65.50
32296;DHT22;18781;51.550;5.418;2023-01-24T15:30:57;5.90;65.40
32296;DHT22;18781;51.550;5.418;2023-01-24T15:33:23;5.90;65.10
32296;DHT22;18781;51.550;5.418;2023-01-24T15:35:48;5.90;65.20
32296;DHT22;18781;51.550;5.418;2023-01-24T15:41:18;5.90;65.10
32296;DHT22;18781;51.550;5.418;2023-01-24T15:44:06;5.90;65.10
32296;DHT22;18781;51.550;5.418;2023-01-24T15:46:32;5.80;64.90
32296;DHT22;18781;51.550;5.418;2023-01-24T15:51:42;5.80;65.10
32296;DHT22;18781;51.550;5.418;2023-01-24T15:54:12;5.80;65.10
32296;DHT22;18781;51.550;5.418;2023-01-24T15:56:38;5.80;65.10
32296;DHT22;18781;51.550;5.418;2023-01-24T15:59:17;5.80;65.10
32296;DHT22;18781;51.550;5.418;2023-01-24T16:01:43;5.80;65.20
32296;DHT22;18781;51.550;5.418;2023-01-24T16:04:13;5.80;65.30
32296;DHT22;18781;51.550;5.418;2023-01-24T16:06:39;5.70;65.20
32296;DHT22;18781;51.550;5.418;2023-01-24T16:09:05;5.80;65.40
32296;DHT22;18781;51.550;5.418;2023-01-24T16:11:31;5.80;65.30
32296;DHT22;18781;51.550;5.418;2023-01-24T16:13:56;5.80;65.40
32296;DHT22;18781;51.550;5.418;2023-01-24T16:16:22;5.70;65.40
32296;DHT22;18781;51.550;5.418;2023-01-24T16:18:48;5.70;65.30
32296;DHT22;18781;51.550;5.418;2023-01-24T16:21:14;5.70;65.40
32296;DHT22;18781;51.550;5.418;2023-01-24T16:23:40;5.70;65.40
32296;DHT22;18781;51.550;5.418;2023-01-24T16:26:07;5.70;65.40
32296;DHT22;18781;51.550;5.418;2023-01-24T16:28:38;5.70;65.40
32296;DHT22;18781;51.550;5.418;2023-01-24T16:31:04;5.70;65.50
32296;DHT22;18781;51.550;5.418;2023-01-24T16:33:29;5.70;65.50
32296;DHT22;18781;51.550;5.418;2023-01-24T16:35:55;5.80;65.50
32296;DHT22;18781;51.550;5.418;2023-01-24T16:38:20;5.80;65.50
32296;DHT22;18781;51.550;5.418;2023-01-24T16:40:47;5.70;65.40
32296;DHT22;18781;51.550;5.418;2023-01-24T16:43:20;5.80;65.40
32296;DHT22;18781;51.550;5.418;2023-01-24T16:45:47;5.70;65.40
32296;DHT22;18781;51.550;5.418;2023-01-24T16:48:13;5.70;65.30
32296;DHT22;18781;51.550;5.418;2023-01-24T16:50:39;5.70;65.30
32296;DHT22;18781;51.550;5.418;2023-01-24T16:53:05;5.70;65.80
32296;DHT22;18781;51.550;5.418;2023-01-24T16:55:30;5.70;65.00
32296;DHT22;18781;51.550;5.418;2023-01-24T16:57:59;5.70;65.10
32296;DHT22;18781;51.550;5.418;2023-01-24T17:00:24;5.70;65.20
32296;DHT22;18781;51.550;5.418;2023-01-24T17:02:50;5.70;65.30
32296;DHT22;18781;51.550;5.418;2023-01-24T17:05:16;5.60;65.20
32296;DHT22;18781;51.550;5.418;2023-01-24T17:07:42;5.60;65.30
32296;DHT22;18781;51.550;5.418;2023-01-24T17:10:08;5.60;65.40
32296;DHT22;18781;51.550;5.418;2023-01-24T17:12:34;5.60;65.40
32296;DHT22;18781;51.550;5.418;2023-01-24T17:14:59;5.60;65.40
32296;DHT22;18781;51.550;5.418;2023-01-24T17:17:25;5.60;65.40
32296;DHT22;18781;51.550;5.418;2023-01-24T17:19:51;5.60;65.40
32296;DHT22;18781;51.550;5.418;2023-01-24T17:22:16;5.60;65.40
32296;DHT22;18781;51.550;5.418;2023-01-24T17:24:42;5.60;65.40
32296;DHT22;18781;51.550;5.418;2023-01-24T17:27:07;5.60;65.30
32296;DHT22;18781;51.550;5.418;2023-01-24T17:29:33;5.60;65.30
32296;DHT22;18781;51.550;5.418;2023-01-24T17:31:58;5.60;65.20
32296;DHT22;18781;51.550;5.418;2023-01-24T17:34:24;5.60;65.10
32296;DHT22;18781;51.550;5.418;2023-01-24T17:36:50;5.60;65.10
32296;DHT22;18781;51.550;5.418;2023-01-24T17:39:15;5.60;65.00
32296;DHT22;18781;51.550;5.418;2023-01-24T17:41:41;5.60;65.00
32296;DHT22;18781;51.550;5.418;2023-01-24T17:44:06;5.50;65.10
32296;DHT22;18781;51.550;5.418;2023-01-24T17:46:32;5.50;65.20